sensor_id;sensor_type;location;lat;lon;timestamp;P1;durP1;ratioP1;P2;durP2;ratioP2
71204;SDS011;58935;54.498;18.544;2023-07-02T00:00:20;9.50;;;5.60;;
71204;SDS011;58935;54.498;18.544;2023-07-02T00:02:46;9.00;;;6.30;;
71204;SDS011;58935;54.498;18.544;2023-07-02T00:05:11;6.70;;;5.40;;
71204;SDS011;58935;54.498;18.544;2023-07-02T00:07:37;6.70;;;5.40;;
71204;SDS011;58935;54.498;18.544;2023-07-02T00:10:03;6.80;;;5.80;;
71204;SDS011;58935;54.498;18.544;2023-07-02T00:12:30;6.10;;;5.50;;
71204;SDS011;58935;54.498;18.544;2023-07-02T00:14:55;6.70;;;5.70;;
71204;SDS011;58935;54.498;18.544;2023-07-02T00:17:21;7.50;;;5.80;;
71204;SDS011;58935;54.498;18.544;2023-07-02T00:19:47;11.40;;;5.80;;
71204;SDS011;58935;54.498;18.544;2023-07-02T00:22:12;7.20;;;6.10;;
71204;SDS011;58935;54.498;18.544;2023-07-02T00:24:37;8.00;;;5.70;;
71204;SDS011;58935;54.498;18.544;2023-07-02T00:27:03;7.40;;;6.00;;
71204;SDS011;58935;54.498;18.544;2023-07-02T00:29:29;6.90;;;6.10;;
71204;SDS011;58935;54.498;18.544;2023-07-02T00:31:54;6.40;;;5.70;;
71204;SDS011;58935;54.498;18.544;2023-07-02T00:34:20;6.00;;;5.30;;
71204;SDS011;58935;54.498;18.544;2023-07-02T00:36:45;9.50;;;6.50;;
71204;SDS011;58935;54.498;18.544;2023-07-02T00:39:12;6.70;;;5.90;;
71204;SDS011;58935;54.498;18.544;2023-07-02T00:41:37;6.60;;;6.00;;
71204;SDS011;58935;54.498;18.544;2023-07-02T00:44:03;7.30;;;6.60;;
71204;SDS011;58935;54.498;18.544;2023-07-02T00:46:31;10.40;;;6.00;;
71204;SDS011;58935;54.498;18.544;2023-07-02T00:48:56;7.10;;;6.00;;
71204;SDS011;58935;54.498;18.544;2023-07-02T00:51:29;9.40;;;5.90;;
71204;SDS011;58935;54.498;18.544;2023-07-02T00:54:00;10.80;;;6.70;;
71204;SDS011;58935;54.498;18.544;2023-07-02T00:56:26;7.30;;;6.20;;
71204;SDS011;58935;54.498;18.544;2023-07-02T00:58:53;7.10;;;6.20;;
71204;SDS011;58935;54.498;18.544;2023-07-02T01:01:27;9.10;;;6.70;;
71204;SDS011;58935;54.498;18.544;2023-07-02T01:03:56;5.90;;;5.30;;
71204;SDS011;58935;54.498;18.544;2023-07-02T01:06:25;10.70;;;5.90;;
71204;SDS011;58935;54.498;18.544;2023-07-02T01:08:58;7.70;;;6.10;;
71204;SDS011;58935;54.498;18.544;2023-07-02T01:11:28;12.00;;;5.90;;
71204;SDS011;58935;54.498;18.544;2023-07-02T01:14:02;8.30;;;6.50;;
71204;SDS011;58935;54.498;18.544;2023-07-02T01:16:32;6.80;;;6.10;;
71204;SDS011;58935;54.498;18.544;2023-07-02T01:19:01;10.10;;;6.30;;
71204;SDS011;58935;54.498;18.544;2023-07-02T01:21:30;6.60;;;5.80;;
71204;SDS011;58935;54.498;18.544;2023-07-02T01:23:59;7.40;;;6.10;;
71204;SDS011;58935;54.498;18.544;2023-07-02T01:26:30;6.50;;;5.90;;
71204;SDS011;58935;54.498;18.544;2023-07-02T01:28:59;6.90;;;6.30;;
71204;SDS011;58935;54.498;18.544;2023-07-02T01:31:26;6.40;;;5.80;;
71204;SDS011;58935;54.498;18.544;2023-07-02T01:33:53;7.90;;;6.00;;
71204;SDS011;58935;54.498;18.544;2023-07-02T01:36:19;8.10;;;5.60;;
71204;SDS011;58935;54.498;18.544;2023-07-02T01:38:44;9.30;;;5.60;;
71204;SDS011;58935;54.498;18.544;2023-07-02T01:41:09;7.20;;;6.20;;
71204;SDS011;58935;54.498;18.544;2023-07-02T01:43:37;9.10;;;5.80;;
71204;SDS011;58935;54.498;18.544;2023-07-02T01:46:02;6.40;;;5.80;;
71204;SDS011;58935;54.498;18.544;2023-07-02T01:48:28;6.90;;;5.50;;
71204;SDS011;58935;54.498;18.544;2023-07-02T01:50:53;6.20;;;5.60;;
71204;SDS011;58935;54.498;18.544;2023-07-02T01:53:18;6.90;;;5.50;;
71204;SDS011;58935;54.498;18.544;2023-07-02T01:55:46;10.00;;;4.70;;
71204;SDS011;58935;54.498;18.544;2023-07-02T01:58:11;8.00;;;5.00;;
71204;SDS011;58935;54.498;18.544;2023-07-02T02:00:37;6.50;;;5.80;;
71204;SDS011;58935;54.498;18.544;2023-07-02T02:03:04;6.20;;;5.40;;
71204;SDS011;58935;54.498;18.544;2023-07-02T02:05:29;6.30;;;5.50;;
71204;SDS011;58935;54.498;18.544;2023-07-02T02:07:54;5.90;;;5.40;;
71204;SDS011;58935;54.498;18.544;2023-07-02T02:10:22;12.30;;;5.60;;
71204;SDS011;58935;54.498;18.544;2023-07-02T02:12:48;7.00;;;6.10;;
71204;SDS011;58935;54.498;18.544;2023-07-02T02:15:13;6.00;;;5.50;;
71204;SDS011;58935;54.498;18.544;2023-07-02T02:17:41;11.80;;;5.80;;
71204;SDS011;58935;54.498;18.544;2023-07-02T02:20:07;6.30;;;5.80;;
71204;SDS011;58935;54.498;18.544;2023-07-02T02:22:33;8.10;;;5.50;;
71204;SDS011;58935;54.498;18.544;2023-07-02T02:24:59;6.50;;;5.30;;
71204;SDS011;58935;54.498;18.544;2023-07-02T02:27:29;6.80;;;5.50;;
71204;SDS011;58935;54.498;18.544;2023-07-02T02:29:55;8.70;;;5.40;;
71204;SDS011;58935;54.498;18.544;2023-07-02T02:32:20;5.60;;;5.00;;
71204;SDS011;58935;54.498;18.544;2023-07-02T02:34:47;5.80;;;5.20;;
71204;SDS011;58935;54.498;18.544;2023-07-02T02:37:12;5.80;;;5.20;;
71204;SDS011;58935;54.498;18.544;2023-07-02T02:39:38;8.10;;;5.40;;
71204;SDS011;58935;54.498;18.544;2023-07-02T02:42:04;7.30;;;5.50;;
71204;SDS011;58935;54.498;18.544;2023-07-02T02:44:29;5.80;;;5.20;;
71204;SDS011;58935;54.498;18.544;2023-07-02T02:46:55;6.50;;;5.30;;
71204;SDS011;58935;54.498;18.544;2023-07-02T02:49:20;6.70;;;5.50;;
71204;SDS011;58935;54.498;18.544;2023-07-02T02:51:50;5.90;;;5.30;;
71204;SDS011;58935;54.498;18.544;2023-07-02T02:54:15;7.90;;;5.40;;
71204;SDS011;58935;54.498;18.544;2023-07-02T02:56:45;5.00;;;4.60;;
71204;SDS011;58935;54.498;18.544;2023-07-02T02:59:10;7.80;;;5.90;;
71204;SDS011;58935;54.498;18.544;2023-07-02T03:01:35;9.00;;;5.20;;
71204;SDS011;58935;54.498;18.544;2023-07-02T03:04:04;5.00;;;4.60;;
71204;SDS011;58935;54.498;18.544;2023-07-02T03:06:29;5.50;;;4.90;;
71204;SDS011;58935;54.498;18.544;2023-07-02T03:08:57;4.80;;;4.40;;
71204;SDS011;58935;54.498;18.544;2023-07-02T03:11:25;6.90;;;4.90;;
71204;SDS011;58935;54.498;18.544;2023-07-02T03:13:50;4.80;;;4.30;;
71204;SDS011;58935;54.498;18.544;2023-07-02T03:16:16;6.90;;;4.00;;
71204;SDS011;58935;54.498;18.544;2023-07-02T03:18:46;8.00;;;4.40;;
71204;SDS011;58935;54.498;18.544;2023-07-02T03:21:12;7.10;;;4.40;;
71204;SDS011;58935;54.498;18.544;2023-07-02T03:23:37;4.70;;;4.10;;
71204;SDS011;58935;54.498;18.544;2023-07-02T03:26:05;8.30;;;4.80;;
71204;SDS011;58935;54.498;18.544;2023-07-02T03:28:32;4.90;;;4.20;;
71204;SDS011;58935;54.498;18.544;2023-07-02T03:31:00;5.60;;;3.80;;
71204;SDS011;58935;54.498;18.544;2023-07-02T03:33:25;4.50;;;4.10;;
71204;SDS011;58935;54.498;18.544;2023-07-02T03:35:50;3.80;;;3.50;;
71204;SDS011;58935;54.498;18.544;2023-07-02T03:38:15;5.40;;;4.00;;
71204;SDS011;58935;54.498;18.544;2023-07-02T03:40:41;3.70;;;3.40;;
71204;SDS011;58935;54.498;18.544;2023-07-02T03:43:06;5.50;;;3.50;;
71204;SDS011;58935;54.498;18.544;2023-07-02T03:45:32;4.30;;;3.90;;
71204;SDS011;58935;54.498;18.544;2023-07-02T03:47:57;6.40;;;4.00;;
71204;SDS011;58935;54.498;18.544;2023-07-02T03:50:22;3.60;;;3.30;;
71204;SDS011;58935;54.498;18.544;2023-07-02T03:52:47;3.70;;;3.40;;
71204;SDS011;58935;54.498;18.544;2023-07-02T03:55:15;4.30;;;3.10;;
71204;SDS011;58935;54.498;18.544;2023-07-02T03:57:40;4.10;;;3.30;;
71204;SDS011;58935;54.498;18.544;2023-07-02T04:00:06;3.50;;;3.20;;
71204;SDS011;58935;54.498;18.544;2023-07-02T04:02:35;2.80;;;2.60;;
71204;SDS011;58935;54.498;18.544;2023-07-02T04:05:01;3.70;;;3.00;;
71204;SDS011;58935;54.498;18.544;2023-07-02T04:07:28;3.10;;;2.90;;
71204;SDS011;58935;54.498;18.544;2023-07-02T04:09:53;3.10;;;2.90;;
71204;SDS011;58935;54.498;18.544;2023-07-02T04:12:18;3.20;;;2.90;;
71204;SDS011;58935;54.498;18.544;2023-07-02T04:14:44;3.00;;;2.70;;
71204;SDS011;58935;54.498;18.544;2023-07-02T04:17:12;2.40;;;2.30;;
71204;SDS011;58935;54.498;18.544;2023-07-02T04:19:37;4.30;;;2.60;;
71204;SDS011;58935;54.498;18.544;2023-07-02T04:22:02;2.80;;;2.60;;
71204;SDS011;58935;54.498;18.544;2023-07-02T04:24:28;2.60;;;2.40;;
71204;SDS011;58935;54.498;18.544;2023-07-02T04:26:53;2.40;;;2.30;;
71204;SDS011;58935;54.498;18.544;2023-07-02T04:29:19;2.70;;;2.20;;
71204;SDS011;58935;54.498;18.544;2023-07-02T04:31:45;2.00;;;1.90;;
71204;SDS011;58935;54.498;18.544;2023-07-02T04:34:10;2.00;;;1.90;;
71204;SDS011;58935;54.498;18.544;2023-07-02T04:36:38;2.10;;;2.00;;
71204;SDS011;58935;54.498;18.544;2023-07-02T04:39:03;2.20;;;2.10;;
71204;SDS011;58935;54.498;18.544;2023-07-02T04:41:31;2.30;;;2.10;;
71204;SDS011;58935;54.498;18.544;2023-07-02T04:43:57;2.00;;;1.90;;
71204;SDS011;58935;54.498;18.544;2023-07-02T04:46:23;1.90;;;1.80;;
71204;SDS011;58935;54.498;18.544;2023-07-02T04:48:48;1.70;;;1.60;;
71204;SDS011;58935;54.498;18.544;2023-07-02T04:51:14;1.90;;;1.80;;
71204;SDS011;58935;54.498;18.544;2023-07-02T04:53:39;3.20;;;1.80;;
71204;SDS011;58935;54.498;18.544;2023-07-02T04:56:04;2.40;;;2.10;;
71204;SDS011;58935;54.498;18.544;2023-07-02T04:58:32;2.20;;;2.00;;
71204;SDS011;58935;54.498;18.544;2023-07-02T05:00:58;2.90;;;1.70;;
71204;SDS011;58935;54.498;18.544;2023-07-02T05:03:23;2.20;;;1.80;;
71204;SDS011;58935;54.498;18.544;2023-07-02T05:05:51;1.80;;;1.70;;
71204;SDS011;58935;54.498;18.544;2023-07-02T05:08:16;2.00;;;1.90;;
71204;SDS011;58935;54.498;18.544;2023-07-02T05:10:42;2.10;;;2.00;;
71204;SDS011;58935;54.498;18.544;2023-07-02T05:13:07;2.00;;;1.80;;
71204;SDS011;58935;54.498;18.544;2023-07-02T05:15:32;3.30;;;1.90;;
71204;SDS011;58935;54.498;18.544;2023-07-02T05:17:58;1.90;;;1.80;;
71204;SDS011;58935;54.498;18.544;2023-07-02T05:20:23;1.50;;;1.40;;
71204;SDS011;58935;54.498;18.544;2023-07-02T05:22:48;3.00;;;2.10;;
71204;SDS011;58935;54.498;18.544;2023-07-02T05:25:16;1.60;;;1.40;;
71204;SDS011;58935;54.498;18.544;2023-07-02T05:27:42;1.30;;;1.30;;
71204;SDS011;58935;54.498;18.544;2023-07-02T05:30:08;1.50;;;1.40;;
71204;SDS011;58935;54.498;18.544;2023-07-02T05:32:34;1.80;;;1.70;;
71204;SDS011;58935;54.498;18.544;2023-07-02T05:35:00;1.90;;;1.60;;
71204;SDS011;58935;54.498;18.544;2023-07-02T05:37:25;2.30;;;1.50;;
71204;SDS011;58935;54.498;18.544;2023-07-02T05:39:50;1.70;;;1.60;;
71204;SDS011;58935;54.498;18.544;2023-07-02T05:42:18;7.50;;;1.60;;
71204;SDS011;58935;54.498;18.544;2023-07-02T05:44:45;1.20;;;1.10;;
71204;SDS011;58935;54.498;18.544;2023-07-02T05:47:13;1.20;;;1.20;;
71204;SDS011;58935;54.498;18.544;2023-07-02T05:49:41;1.60;;;1.50;;
71204;SDS011;58935;54.498;18.544;2023-07-02T05:52:08;1.40;;;1.40;;
71204;SDS011;58935;54.498;18.544;2023-07-02T05:54:33;1.00;;;1.00;;
71204;SDS011;58935;54.498;18.544;2023-07-02T05:56:59;3.60;;;1.30;;
71204;SDS011;58935;54.498;18.544;2023-07-02T05:59:26;2.10;;;1.40;;
71204;SDS011;58935;54.498;18.544;2023-07-02T06:01:51;1.30;;;1.20;;
71204;SDS011;58935;54.498;18.544;2023-07-02T06:04:17;3.00;;;1.20;;
71204;SDS011;58935;54.498;18.544;2023-07-02T06:06:42;1.40;;;1.30;;
71204;SDS011;58935;54.498;18.544;2023-07-02T06:09:07;1.40;;;1.30;;
71204;SDS011;58935;54.498;18.544;2023-07-02T06:11:33;1.50;;;1.30;;
71204;SDS011;58935;54.498;18.544;2023-07-02T06:13:58;1.30;;;1.20;;
71204;SDS011;58935;54.498;18.544;2023-07-02T06:16:25;1.20;;;1.20;;
71204;SDS011;58935;54.498;18.544;2023-07-02T06:18:50;1.30;;;1.20;;
71204;SDS011;58935;54.498;18.544;2023-07-02T06:21:16;1.20;;;1.20;;
71204;SDS011;58935;54.498;18.544;2023-07-02T06:23:43;0.90;;;0.90;;
71204;SDS011;58935;54.498;18.544;2023-07-02T06:26:09;1.20;;;1.10;;
71204;SDS011;58935;54.498;18.544;2023-07-02T06:28:35;1.60;;;1.30;;
71204;SDS011;58935;54.498;18.544;2023-07-02T06:31:01;1.40;;;1.30;;
71204;SDS011;58935;54.498;18.544;2023-07-02T06:33:26;1.40;;;1.20;;
71204;SDS011;58935;54.498;18.544;2023-07-02T06:35:52;1.50;;;1.30;;
71204;SDS011;58935;54.498;18.544;2023-07-02T06:38:17;1.40;;;1.40;;
71204;SDS011;58935;54.498;18.544;2023-07-02T06:40:45;2.20;;;1.30;;
71204;SDS011;58935;54.498;18.544;2023-07-02T06:43:10;1.50;;;1.40;;
71204;SDS011;58935;54.498;18.544;2023-07-02T06:45:38;1.40;;;1.30;;
71204;SDS011;58935;54.498;18.544;2023-07-02T06:48:03;1.70;;;1.40;;
71204;SDS011;58935;54.498;18.544;2023-07-02T06:50:29;4.80;;;1.10;;
71204;SDS011;58935;54.498;18.544;2023-07-02T06:52:54;0.80;;;0.80;;
71204;SDS011;58935;54.498;18.544;2023-07-02T06:55:20;1.40;;;1.30;;
71204;SDS011;58935;54.498;18.544;2023-07-02T06:57:45;1.30;;;1.20;;
71204;SDS011;58935;54.498;18.544;2023-07-02T07:00:12;1.30;;;1.20;;
71204;SDS011;58935;54.498;18.544;2023-07-02T07:02:38;0.80;;;0.80;;
71204;SDS011;58935;54.498;18.544;2023-07-02T07:05:04;1.30;;;1.20;;
71204;SDS011;58935;54.498;18.544;2023-07-02T07:07:30;1.20;;;1.10;;
71204;SDS011;58935;54.498;18.544;2023-07-02T07:09:57;3.20;;;1.20;;
71204;SDS011;58935;54.498;18.544;2023-07-02T07:12:22;7.50;;;1.30;;
71204;SDS011;58935;54.498;18.544;2023-07-02T07:14:47;1.80;;;1.30;;
71204;SDS011;58935;54.498;18.544;2023-07-02T07:17:13;4.50;;;1.50;;
71204;SDS011;58935;54.498;18.544;2023-07-02T07:19:40;2.60;;;1.50;;
71204;SDS011;58935;54.498;18.544;2023-07-02T07:22:10;2.70;;;1.50;;
71204;SDS011;58935;54.498;18.544;2023-07-02T07:24:35;3.90;;;1.70;;
71204;SDS011;58935;54.498;18.544;2023-07-02T07:27:00;2.40;;;1.60;;
71204;SDS011;58935;54.498;18.544;2023-07-02T07:29:28;4.10;;;1.90;;
71204;SDS011;58935;54.498;18.544;2023-07-02T07:31:53;5.50;;;1.60;;
71204;SDS011;58935;54.498;18.544;2023-07-02T07:34:19;5.20;;;1.80;;
71204;SDS011;58935;54.498;18.544;2023-07-02T07:36:44;4.80;;;1.60;;
71204;SDS011;58935;54.498;18.544;2023-07-02T07:39:12;2.50;;;1.50;;
71204;SDS011;58935;54.498;18.544;2023-07-02T07:41:37;6.60;;;1.90;;
71204;SDS011;58935;54.498;18.544;2023-07-02T07:44:03;4.40;;;1.70;;
71204;SDS011;58935;54.498;18.544;2023-07-02T07:46:28;4.00;;;1.70;;
71204;SDS011;58935;54.498;18.544;2023-07-02T07:48:54;3.20;;;1.60;;
71204;SDS011;58935;54.498;18.544;2023-07-02T07:51:19;2.30;;;1.60;;
71204;SDS011;58935;54.498;18.544;2023-07-02T07:53:45;2.30;;;1.90;;
71204;SDS011;58935;54.498;18.544;2023-07-02T07:56:10;5.50;;;1.90;;
71204;SDS011;58935;54.498;18.544;2023-07-02T07:58:35;4.60;;;1.80;;
71204;SDS011;58935;54.498;18.544;2023-07-02T08:01:01;4.70;;;1.80;;
71204;SDS011;58935;54.498;18.544;2023-07-02T08:03:26;2.30;;;1.80;;
71204;SDS011;58935;54.498;18.544;2023-07-02T08:05:51;6.20;;;1.80;;
71204;SDS011;58935;54.498;18.544;2023-07-02T08:08:17;3.60;;;1.50;;
71204;SDS011;58935;54.498;18.544;2023-07-02T08:10:42;4.20;;;1.60;;
71204;SDS011;58935;54.498;18.544;2023-07-02T08:13:08;5.20;;;1.90;;
71204;SDS011;58935;54.498;18.544;2023-07-02T08:15:33;3.30;;;2.00;;
71204;SDS011;58935;54.498;18.544;2023-07-02T08:17:59;3.60;;;2.40;;
71204;SDS011;58935;54.498;18.544;2023-07-02T08:20:25;5.30;;;1.90;;
71204;SDS011;58935;54.498;18.544;2023-07-02T08:22:50;6.30;;;1.90;;
71204;SDS011;58935;54.498;18.544;2023-07-02T08:25:18;4.90;;;2.00;;
71204;SDS011;58935;54.498;18.544;2023-07-02T08:27:45;3.50;;;2.10;;
71204;SDS011;58935;54.498;18.544;2023-07-02T08:30:10;4.20;;;2.10;;
71204;SDS011;58935;54.498;18.544;2023-07-02T08:32:36;3.30;;;2.00;;
71204;SDS011;58935;54.498;18.544;2023-07-02T08:35:01;6.50;;;2.30;;
71204;SDS011;58935;54.498;18.544;2023-07-02T08:37:29;7.30;;;2.30;;
71204;SDS011;58935;54.498;18.544;2023-07-02T08:39:54;5.10;;;2.10;;
71204;SDS011;58935;54.498;18.544;2023-07-02T08:42:20;4.10;;;2.00;;
71204;SDS011;58935;54.498;18.544;2023-07-02T08:44:46;6.10;;;2.30;;
71204;SDS011;58935;54.498;18.544;2023-07-02T08:47:12;3.10;;;1.70;;
71204;SDS011;58935;54.498;18.544;2023-07-02T08:49:40;3.60;;;2.00;;
71204;SDS011;58935;54.498;18.544;2023-07-02T08:52:07;3.50;;;1.70;;
71204;SDS011;58935;54.498;18.544;2023-07-02T08:54:32;4.00;;;2.00;;
71204;SDS011;58935;54.498;18.544;2023-07-02T08:56:57;4.10;;;2.10;;
71204;SDS011;58935;54.498;18.544;2023-07-02T08:59:30;7.10;;;2.30;;
71204;SDS011;58935;54.498;18.544;2023-07-02T09:01:56;6.20;;;2.50;;
71204;SDS011;58935;54.498;18.544;2023-07-02T09:04:23;4.30;;;2.20;;
71204;SDS011;58935;54.498;18.544;2023-07-02T09:07:03;5.50;;;2.20;;
71204;SDS011;58935;54.498;18.544;2023-07-02T09:09:31;4.30;;;2.10;;
71204;SDS011;58935;54.498;18.544;2023-07-02T09:11:57;4.20;;;2.20;;
71204;SDS011;58935;54.498;18.544;2023-07-02T09:14:29;5.60;;;2.40;;
71204;SDS011;58935;54.498;18.544;2023-07-02T09:19:28;6.10;;;2.50;;
71204;SDS011;58935;54.498;18.544;2023-07-02T09:21:57;3.70;;;2.00;;
71204;SDS011;58935;54.498;18.544;2023-07-02T09:24:27;8.30;;;2.50;;
71204;SDS011;58935;54.498;18.544;2023-07-02T09:26:56;7.20;;;2.10;;
71204;SDS011;58935;54.498;18.544;2023-07-02T09:29:26;6.80;;;2.40;;
71204;SDS011;58935;54.498;18.544;2023-07-02T09:31:58;5.40;;;2.10;;
71204;SDS011;58935;54.498;18.544;2023-07-02T09:34:28;6.20;;;2.70;;
71204;SDS011;58935;54.498;18.544;2023-07-02T09:36:55;5.10;;;1.90;;
71204;SDS011;58935;54.498;18.544;2023-07-02T09:39:26;5.20;;;2.60;;
71204;SDS011;58935;54.498;18.544;2023-07-02T09:41:57;4.00;;;2.60;;
71204;SDS011;58935;54.498;18.544;2023-07-02T09:44:27;4.30;;;2.10;;
71204;SDS011;58935;54.498;18.544;2023-07-02T09:47:05;6.80;;;2.70;;
71204;SDS011;58935;54.498;18.544;2023-07-02T09:49:34;3.00;;;2.10;;
71204;SDS011;58935;54.498;18.544;2023-07-02T09:52:06;9.40;;;2.60;;
71204;SDS011;58935;54.498;18.544;2023-07-02T09:54:33;5.00;;;2.40;;
71204;SDS011;58935;54.498;18.544;2023-07-02T09:57:02;8.30;;;2.90;;
71204;SDS011;58935;54.498;18.544;2023-07-02T09:59:29;6.60;;;2.70;;
71204;SDS011;58935;54.498;18.544;2023-07-02T10:01:55;6.50;;;2.30;;
71204;SDS011;58935;54.498;18.544;2023-07-02T10:04:23;6.90;;;2.50;;
71204;SDS011;58935;54.498;18.544;2023-07-02T10:06:51;5.50;;;2.40;;
71204;SDS011;58935;54.498;18.544;2023-07-02T10:09:35;4.90;;;2.40;;
71204;SDS011;58935;54.498;18.544;2023-07-02T10:12:18;3.00;;;2.00;;
71204;SDS011;58935;54.498;18.544;2023-07-02T10:14:48;6.90;;;2.40;;
71204;SDS011;58935;54.498;18.544;2023-07-02T10:19:52;6.90;;;2.60;;
71204;SDS011;58935;54.498;18.544;2023-07-02T10:22:18;6.00;;;2.40;;
71204;SDS011;58935;54.498;18.544;2023-07-02T10:27:33;6.20;;;2.50;;
71204;SDS011;58935;54.498;18.544;2023-07-02T10:30:01;5.80;;;2.30;;
71204;SDS011;58935;54.498;18.544;2023-07-02T10:32:29;6.60;;;2.10;;
71204;SDS011;58935;54.498;18.544;2023-07-02T10:34:54;3.90;;;2.40;;
71204;SDS011;58935;54.498;18.544;2023-07-02T10:37:21;7.20;;;2.60;;
71204;SDS011;58935;54.498;18.544;2023-07-02T10:39:46;4.60;;;2.40;;
71204;SDS011;58935;54.498;18.544;2023-07-02T10:42:12;7.30;;;2.90;;
71204;SDS011;58935;54.498;18.544;2023-07-02T10:47:12;4.80;;;2.60;;
71204;SDS011;58935;54.498;18.544;2023-07-02T10:49:37;6.00;;;2.20;;
71204;SDS011;58935;54.498;18.544;2023-07-02T10:52:03;5.00;;;2.80;;
71204;SDS011;58935;54.498;18.544;2023-07-02T10:57:06;5.90;;;2.30;;
71204;SDS011;58935;54.498;18.544;2023-07-02T10:59:32;6.00;;;2.80;;
71204;SDS011;58935;54.498;18.544;2023-07-02T11:01:59;11.60;;;2.90;;
71204;SDS011;58935;54.498;18.544;2023-07-02T11:04:27;7.70;;;2.70;;
71204;SDS011;58935;54.498;18.544;2023-07-02T11:06:54;5.50;;;2.60;;
71204;SDS011;58935;54.498;18.544;2023-07-02T11:09:19;7.00;;;2.90;;
71204;SDS011;58935;54.498;18.544;2023-07-02T11:11:51;5.90;;;2.80;;
71204;SDS011;58935;54.498;18.544;2023-07-02T11:16:54;2.90;;;2.30;;
71204;SDS011;58935;54.498;18.544;2023-07-02T11:19:20;6.60;;;2.60;;
71204;SDS011;58935;54.498;18.544;2023-07-02T11:21:53;5.70;;;2.40;;
71204;SDS011;58935;54.498;18.544;2023-07-02T11:24:26;4.50;;;3.00;;
71204;SDS011;58935;54.498;18.544;2023-07-02T11:26:54;7.70;;;2.80;;
71204;SDS011;58935;54.498;18.544;2023-07-02T11:29:20;5.40;;;2.90;;
71204;SDS011;58935;54.498;18.544;2023-07-02T11:31:45;6.40;;;3.10;;
71204;SDS011;58935;54.498;18.544;2023-07-02T11:34:12;6.40;;;2.70;;
71204;SDS011;58935;54.498;18.544;2023-07-02T11:36:41;9.40;;;2.90;;
71204;SDS011;58935;54.498;18.544;2023-07-02T11:39:09;5.40;;;3.30;;
71204;SDS011;58935;54.498;18.544;2023-07-02T11:41:39;4.90;;;2.60;;
71204;SDS011;58935;54.498;18.544;2023-07-02T11:44:06;7.10;;;3.40;;
71204;SDS011;58935;54.498;18.544;2023-07-02T11:46:32;6.80;;;3.00;;
71204;SDS011;58935;54.498;18.544;2023-07-02T11:49:01;4.20;;;2.60;;
71204;SDS011;58935;54.498;18.544;2023-07-02T11:51:28;8.20;;;3.00;;
71204;SDS011;58935;54.498;18.544;2023-07-02T11:53:53;6.20;;;3.10;;
71204;SDS011;58935;54.498;18.544;2023-07-02T11:56:19;4.40;;;2.90;;
71204;SDS011;58935;54.498;18.544;2023-07-02T11:58:44;7.80;;;3.00;;
71204;SDS011;58935;54.498;18.544;2023-07-02T12:01:09;10.20;;;3.40;;
71204;SDS011;58935;54.498;18.544;2023-07-02T12:03:35;6.60;;;3.00;;
71204;SDS011;58935;54.498;18.544;2023-07-02T12:06:03;9.40;;;3.20;;
71204;SDS011;58935;54.498;18.544;2023-07-02T12:08:28;9.60;;;3.40;;
71204;SDS011;58935;54.498;18.544;2023-07-02T12:10:54;11.60;;;3.50;;
71204;SDS011;58935;54.498;18.544;2023-07-02T12:13:19;4.80;;;3.10;;
71204;SDS011;58935;54.498;18.544;2023-07-02T12:15:47;9.30;;;3.30;;
71204;SDS011;58935;54.498;18.544;2023-07-02T12:18:13;9.80;;;3.70;;
71204;SDS011;58935;54.498;18.544;2023-07-02T12:20:39;11.60;;;3.60;;
71204;SDS011;58935;54.498;18.544;2023-07-02T12:23:05;6.70;;;3.10;;
71204;SDS011;58935;54.498;18.544;2023-07-02T12:25:33;8.70;;;3.30;;
71204;SDS011;58935;54.498;18.544;2023-07-02T12:28:02;8.10;;;3.40;;
71204;SDS011;58935;54.498;18.544;2023-07-02T12:30:29;7.80;;;3.10;;
71204;SDS011;58935;54.498;18.544;2023-07-02T12:32:54;7.80;;;3.30;;
71204;SDS011;58935;54.498;18.544;2023-07-02T12:35:20;9.30;;;3.20;;
71204;SDS011;58935;54.498;18.544;2023-07-02T12:37:48;8.40;;;3.30;;
71204;SDS011;58935;54.498;18.544;2023-07-02T12:40:15;6.30;;;3.40;;
71204;SDS011;58935;54.498;18.544;2023-07-02T12:42:41;7.10;;;3.30;;
71204;SDS011;58935;54.498;18.544;2023-07-02T12:45:08;11.70;;;3.80;;
71204;SDS011;58935;54.498;18.544;2023-07-02T12:47:35;9.60;;;3.70;;
71204;SDS011;58935;54.498;18.544;2023-07-02T12:50:01;7.20;;;3.80;;
71204;SDS011;58935;54.498;18.544;2023-07-02T12:52:28;8.50;;;3.70;;
71204;SDS011;58935;54.498;18.544;2023-07-02T12:54:54;6.20;;;3.40;;
71204;SDS011;58935;54.498;18.544;2023-07-02T12:57:20;8.80;;;3.30;;
71204;SDS011;58935;54.498;18.544;2023-07-02T12:59:45;4.70;;;3.30;;
71204;SDS011;58935;54.498;18.544;2023-07-02T13:02:11;9.50;;;3.00;;
71204;SDS011;58935;54.498;18.544;2023-07-02T13:04:37;10.10;;;3.50;;
71204;SDS011;58935;54.498;18.544;2023-07-02T13:07:05;12.70;;;3.70;;
71204;SDS011;58935;54.498;18.544;2023-07-02T13:09:31;5.00;;;3.30;;
71204;SDS011;58935;54.498;18.544;2023-07-02T13:11:56;5.50;;;3.40;;
71204;SDS011;58935;54.498;18.544;2023-07-02T13:14:22;8.60;;;3.40;;
71204;SDS011;58935;54.498;18.544;2023-07-02T13:16:47;6.30;;;3.50;;
71204;SDS011;58935;54.498;18.544;2023-07-02T13:19:13;8.80;;;3.20;;
71204;SDS011;58935;54.498;18.544;2023-07-02T13:21:42;6.40;;;3.70;;
71204;SDS011;58935;54.498;18.544;2023-07-02T13:24:08;7.00;;;3.40;;
71204;SDS011;58935;54.498;18.544;2023-07-02T13:26:37;9.00;;;3.60;;
71204;SDS011;58935;54.498;18.544;2023-07-02T13:29:03;11.00;;;3.90;;
71204;SDS011;58935;54.498;18.544;2023-07-02T13:31:28;9.80;;;3.60;;
71204;SDS011;58935;54.498;18.544;2023-07-02T13:33:53;10.80;;;3.50;;
71204;SDS011;58935;54.498;18.544;2023-07-02T13:36:19;6.20;;;3.70;;
71204;SDS011;58935;54.498;18.544;2023-07-02T13:38:44;8.90;;;3.60;;
71204;SDS011;58935;54.498;18.544;2023-07-02T13:41:12;10.40;;;3.60;;
71204;SDS011;58935;54.498;18.544;2023-07-02T13:43:37;9.10;;;3.40;;
71204;SDS011;58935;54.498;18.544;2023-07-02T13:46:03;8.90;;;3.70;;
71204;SDS011;58935;54.498;18.544;2023-07-02T13:48:28;11.40;;;3.80;;
71204;SDS011;58935;54.498;18.544;2023-07-02T13:50:54;11.20;;;3.60;;
71204;SDS011;58935;54.498;18.544;2023-07-02T13:53:19;10.10;;;4.00;;
71204;SDS011;58935;54.498;18.544;2023-07-02T13:55:45;10.50;;;3.70;;
71204;SDS011;58935;54.498;18.544;2023-07-02T13:58:10;6.80;;;3.50;;
71204;SDS011;58935;54.498;18.544;2023-07-02T14:00:36;7.90;;;3.50;;
71204;SDS011;58935;54.498;18.544;2023-07-02T14:03:01;6.40;;;3.80;;
71204;SDS011;58935;54.498;18.544;2023-07-02T14:05:28;11.60;;;3.40;;
71204;SDS011;58935;54.498;18.544;2023-07-02T14:07:53;6.90;;;3.60;;
71204;SDS011;58935;54.498;18.544;2023-07-02T14:10:19;10.90;;;3.70;;
71204;SDS011;58935;54.498;18.544;2023-07-02T14:12:44;12.30;;;4.70;;
71204;SDS011;58935;54.498;18.544;2023-07-02T14:15:10;6.80;;;3.40;;
71204;SDS011;58935;54.498;18.544;2023-07-02T14:17:36;6.20;;;3.70;;
71204;SDS011;58935;54.498;18.544;2023-07-02T14:20:03;8.40;;;4.30;;
71204;SDS011;58935;54.498;18.544;2023-07-02T14:22:32;11.60;;;4.40;;
71204;SDS011;58935;54.498;18.544;2023-07-02T14:24:57;10.70;;;3.70;;
71204;SDS011;58935;54.498;18.544;2023-07-02T14:27:25;8.70;;;3.60;;
71204;SDS011;58935;54.498;18.544;2023-07-02T14:29:51;11.30;;;4.20;;
71204;SDS011;58935;54.498;18.544;2023-07-02T14:32:16;6.20;;;3.60;;
71204;SDS011;58935;54.498;18.544;2023-07-02T14:34:42;15.30;;;4.20;;
71204;SDS011;58935;54.498;18.544;2023-07-02T14:37:07;8.50;;;4.20;;
71204;SDS011;58935;54.498;18.544;2023-07-02T14:39:33;10.00;;;4.10;;
71204;SDS011;58935;54.498;18.544;2023-07-02T14:42:01;16.30;;;4.50;;
71204;SDS011;58935;54.498;18.544;2023-07-02T14:44:26;9.90;;;4.60;;